Terminal Aerodrome Forecast
Issued by NWS

Home | Current Version | Previous Version | Text Only | Print | Product List | Glossary On
Versions: 1 2 3 4 5 6 7 8 9 10 11 12 13 14 15
000
FTUS45 KGJT 040530
TAFMTJ
TAF
KMTJ 040530Z 0406/0506 13009KT P6SM SKC
     FM041400 VRB03KT P6SM FEW250
     FM041700 30008KT P6SM SCT250
     FM050300 14005KT P6SM BKN250=

USA.gov is the U.S. government's official web portal to all federal, state and local government web resources and services.